Good Hope, Minnesota
Current Conditions -  °F | °C
As of 1:33 PM on Sunday 21 Dec 2014 (Local Time) from KFOZ Reporting Station
Haze Haze  
Wind Chill: 24°   Ceiling: 600
Heat Index: 32°   Visibility: 4mi
Dew Point: 30°   Wind: 9mph
Humidity: 93%   Direction: 160°SSE
Pressure: 29.7"   Gusts: NA
Location:  47.6295°N, 94.1797°W
Report Text: KFOZ 211933Z AUTO 16008KT 143V213 4SM BR OVC006 00/M01 A2970 RMK AO2
Loading
Personal Weather Stations






























Interactive Weather Map New forecast layout! Learn more

10-Day Weather Forecast

Advertisements
Track Severe Weather on mobile